sensor_id;sensor_type;location;lat;lon;timestamp;P1;durP1;ratioP1;P2;durP2;ratioP2
22103;SDS011;11218;48.886;9.426;2023-02-15T00:00:21;37.00;;;15.27;;
22103;SDS011;11218;48.886;9.426;2023-02-15T00:02:49;39.83;;;16.20;;
22103;SDS011;11218;48.886;9.426;2023-02-15T00:05:17;34.63;;;15.40;;
22103;SDS011;11218;48.886;9.426;2023-02-15T00:07:47;44.65;;;17.45;;
22103;SDS011;11218;48.886;9.426;2023-02-15T00:10:15;38.65;;;16.35;;
22103;SDS011;11218;48.886;9.426;2023-02-15T00:12:43;38.55;;;17.27;;
22103;SDS011;11218;48.886;9.426;2023-02-15T00:15:15;42.13;;;17.30;;
22103;SDS011;11218;48.886;9.426;2023-02-15T00:17:43;41.00;;;16.48;;
22103;SDS011;11218;48.886;9.426;2023-02-15T00:20:11;42.88;;;17.20;;
22103;SDS011;11218;48.886;9.426;2023-02-15T00:22:39;47.22;;;18.02;;
22103;SDS011;11218;48.886;9.426;2023-02-15T00:25:09;37.72;;;16.67;;
22103;SDS011;11218;48.886;9.426;2023-02-15T00:27:37;46.63;;;16.80;;
22103;SDS011;11218;48.886;9.426;2023-02-15T00:30:05;48.15;;;17.52;;
22103;SDS011;11218;48.886;9.426;2023-02-15T00:32:34;39.03;;;16.30;;
22103;SDS011;11218;48.886;9.426;2023-02-15T00:35:02;41.67;;;16.38;;
22103;SDS011;11218;48.886;9.426;2023-02-15T00:37:31;38.42;;;16.05;;
22103;SDS011;11218;48.886;9.426;2023-02-15T00:39:59;52.90;;;18.70;;
22103;SDS011;11218;48.886;9.426;2023-02-15T00:42:28;50.15;;;16.65;;
22103;SDS011;11218;48.886;9.426;2023-02-15T00:44:56;50.25;;;18.38;;
22103;SDS011;11218;48.886;9.426;2023-02-15T00:47:24;52.15;;;19.52;;
22103;SDS011;11218;48.886;9.426;2023-02-15T00:49:52;46.45;;;18.10;;
22103;SDS011;11218;48.886;9.426;2023-02-15T00:52:20;45.33;;;18.23;;
22103;SDS011;11218;48.886;9.426;2023-02-15T00:54:48;42.50;;;17.42;;
22103;SDS011;11218;48.886;9.426;2023-02-15T00:57:16;39.22;;;16.42;;
22103;SDS011;11218;48.886;9.426;2023-02-15T00:59:46;44.13;;;17.05;;
22103;SDS011;11218;48.886;9.426;2023-02-15T01:02:14;42.33;;;16.58;;
22103;SDS011;11218;48.886;9.426;2023-02-15T01:04:42;42.90;;;16.88;;
22103;SDS011;11218;48.886;9.426;2023-02-15T01:07:10;42.83;;;16.77;;
22103;SDS011;11218;48.886;9.426;2023-02-15T01:09:39;42.10;;;16.85;;
22103;SDS011;11218;48.886;9.426;2023-02-15T01:12:07;40.63;;;16.85;;
22103;SDS011;11218;48.886;9.426;2023-02-15T01:14:36;39.58;;;16.60;;
22103;SDS011;11218;48.886;9.426;2023-02-15T01:17:06;38.95;;;16.30;;
22103;SDS011;11218;48.886;9.426;2023-02-15T01:19:33;44.22;;;16.70;;
22103;SDS011;11218;48.886;9.426;2023-02-15T01:22:02;43.92;;;17.52;;
22103;SDS011;11218;48.886;9.426;2023-02-15T01:24:30;45.17;;;17.52;;
22103;SDS011;11218;48.886;9.426;2023-02-15T01:26:58;45.40;;;17.13;;
22103;SDS011;11218;48.886;9.426;2023-02-15T01:29:26;40.65;;;16.92;;
22103;SDS011;11218;48.886;9.426;2023-02-15T01:31:54;42.10;;;16.98;;
22103;SDS011;11218;48.886;9.426;2023-02-15T01:34:24;40.25;;;16.08;;
22103;SDS011;11218;48.886;9.426;2023-02-15T01:36:52;45.00;;;16.75;;
22103;SDS011;11218;48.886;9.426;2023-02-15T01:39:20;48.25;;;17.50;;
22103;SDS011;11218;48.886;9.426;2023-02-15T01:41:48;39.88;;;14.77;;
22103;SDS011;11218;48.886;9.426;2023-02-15T01:47:17;40.95;;;15.93;;
22103;SDS011;11218;48.886;9.426;2023-02-15T01:49:58;52.65;;;18.75;;
22103;SDS011;11218;48.886;9.426;2023-02-15T01:52:31;41.05;;;16.33;;
22103;SDS011;11218;48.886;9.426;2023-02-15T01:55:01;46.42;;;17.77;;
22103;SDS011;11218;48.886;9.426;2023-02-15T01:57:33;44.58;;;16.92;;
22103;SDS011;11218;48.886;9.426;2023-02-15T02:00:02;40.30;;;16.20;;
22103;SDS011;11218;48.886;9.426;2023-02-15T02:02:32;49.08;;;18.77;;
22103;SDS011;11218;48.886;9.426;2023-02-15T02:05:02;46.38;;;16.85;;
22103;SDS011;11218;48.886;9.426;2023-02-15T02:07:34;51.83;;;18.45;;
22103;SDS011;11218;48.886;9.426;2023-02-15T02:10:06;52.35;;;20.15;;
22103;SDS011;11218;48.886;9.426;2023-02-15T02:12:37;48.20;;;19.55;;
22103;SDS011;11218;48.886;9.426;2023-02-15T02:15:09;49.35;;;18.92;;
22103;SDS011;11218;48.886;9.426;2023-02-15T02:17:41;46.40;;;18.13;;
22103;SDS011;11218;48.886;9.426;2023-02-15T02:20:33;56.35;;;19.30;;
22103;SDS011;11218;48.886;9.426;2023-02-15T02:23:25;65.22;;;19.40;;
22103;SDS011;11218;48.886;9.426;2023-02-15T02:35:36;56.10;;;18.77;;
22103;SDS011;11218;48.886;9.426;2023-02-15T02:38:11;44.50;;;17.60;;
22103;SDS011;11218;48.886;9.426;2023-02-15T02:40:52;47.63;;;17.33;;
22103;SDS011;11218;48.886;9.426;2023-02-15T02:43:29;54.70;;;17.90;;
22103;SDS011;11218;48.886;9.426;2023-02-15T02:46:02;49.38;;;16.85;;
22103;SDS011;11218;48.886;9.426;2023-02-15T02:48:37;55.05;;;18.77;;
22103;SDS011;11218;48.886;9.426;2023-02-15T02:51:06;60.03;;;19.38;;
22103;SDS011;11218;48.886;9.426;2023-02-15T02:53:34;52.80;;;18.20;;
22103;SDS011;11218;48.886;9.426;2023-02-15T02:56:03;50.70;;;19.60;;
22103;SDS011;11218;48.886;9.426;2023-02-15T02:58:39;54.08;;;18.42;;
22103;SDS011;11218;48.886;9.426;2023-02-15T03:01:13;43.00;;;16.35;;
22103;SDS011;11218;48.886;9.426;2023-02-15T03:03:47;49.63;;;17.33;;
22103;SDS011;11218;48.886;9.426;2023-02-15T03:06:21;52.33;;;17.23;;
22103;SDS011;11218;48.886;9.426;2023-02-15T03:08:55;48.60;;;18.13;;
22103;SDS011;11218;48.886;9.426;2023-02-15T03:11:28;42.28;;;16.98;;
22103;SDS011;11218;48.886;9.426;2023-02-15T03:13:57;45.15;;;16.45;;
22103;SDS011;11218;48.886;9.426;2023-02-15T03:16:26;43.75;;;16.08;;
22103;SDS011;11218;48.886;9.426;2023-02-15T03:18:58;46.92;;;16.95;;
22103;SDS011;11218;48.886;9.426;2023-02-15T03:21:32;52.20;;;16.67;;
22103;SDS011;11218;48.886;9.426;2023-02-15T03:24:04;38.72;;;15.43;;
22103;SDS011;11218;48.886;9.426;2023-02-15T03:26:37;48.22;;;17.13;;
22103;SDS011;11218;48.886;9.426;2023-02-15T03:29:07;52.83;;;17.75;;
22103;SDS011;11218;48.886;9.426;2023-02-15T03:31:38;49.47;;;17.77;;
22103;SDS011;11218;48.886;9.426;2023-02-15T03:34:12;43.00;;;16.60;;
22103;SDS011;11218;48.886;9.426;2023-02-15T03:36:44;41.45;;;15.68;;
22103;SDS011;11218;48.886;9.426;2023-02-15T03:39:17;44.23;;;16.57;;
22103;SDS011;11218;48.886;9.426;2023-02-15T03:41:50;44.78;;;15.68;;
22103;SDS011;11218;48.886;9.426;2023-02-15T03:44:27;47.03;;;16.23;;
22103;SDS011;11218;48.886;9.426;2023-02-15T03:46:59;47.07;;;17.47;;
22103;SDS011;11218;48.886;9.426;2023-02-15T03:49:35;41.47;;;16.47;;
22103;SDS011;11218;48.886;9.426;2023-02-15T03:52:08;42.53;;;16.17;;
22103;SDS011;11218;48.886;9.426;2023-02-15T03:54:37;43.00;;;16.53;;
22103;SDS011;11218;48.886;9.426;2023-02-15T03:57:11;47.87;;;17.23;;
22103;SDS011;11218;48.886;9.426;2023-02-15T04:00:03;49.57;;;18.17;;
22103;SDS011;11218;48.886;9.426;2023-02-15T04:02:59;46.07;;;17.20;;
22103;SDS011;11218;48.886;9.426;2023-02-15T04:05:47;45.00;;;17.23;;
22103;SDS011;11218;48.886;9.426;2023-02-15T04:08:16;46.83;;;16.97;;
22103;SDS011;11218;48.886;9.426;2023-02-15T04:10:44;42.10;;;17.37;;
22103;SDS011;11218;48.886;9.426;2023-02-15T04:13:23;49.10;;;17.90;;
22103;SDS011;11218;48.886;9.426;2023-02-15T04:15:53;59.77;;;18.30;;
22103;SDS011;11218;48.886;9.426;2023-02-15T04:18:31;51.80;;;18.67;;
22103;SDS011;11218;48.886;9.426;2023-02-15T04:21:19;55.87;;;19.23;;
22103;SDS011;11218;48.886;9.426;2023-02-15T04:24:06;57.43;;;18.13;;
22103;SDS011;11218;48.886;9.426;2023-02-15T04:26:52;49.87;;;18.57;;
22103;SDS011;11218;48.886;9.426;2023-02-15T04:29:21;38.53;;;16.67;;
22103;SDS011;11218;48.886;9.426;2023-02-15T04:31:50;43.93;;;18.00;;
22103;SDS011;11218;48.886;9.426;2023-02-15T04:34:19;51.67;;;18.70;;
22103;SDS011;11218;48.886;9.426;2023-02-15T04:36:49;58.60;;;19.40;;
22103;SDS011;11218;48.886;9.426;2023-02-15T04:39:18;47.10;;;17.00;;
22103;SDS011;11218;48.886;9.426;2023-02-15T04:41:46;41.53;;;16.97;;
22103;SDS011;11218;48.886;9.426;2023-02-15T04:44:15;45.93;;;16.67;;
22103;SDS011;11218;48.886;9.426;2023-02-15T04:46:43;45.47;;;16.73;;
22103;SDS011;11218;48.886;9.426;2023-02-15T04:49:11;50.47;;;18.97;;
22103;SDS011;11218;48.886;9.426;2023-02-15T04:51:39;41.73;;;16.87;;
22103;SDS011;11218;48.886;9.426;2023-02-15T04:54:08;40.67;;;16.20;;
22103;SDS011;11218;48.886;9.426;2023-02-15T04:56:36;39.40;;;16.80;;
22103;SDS011;11218;48.886;9.426;2023-02-15T04:59:05;41.90;;;16.83;;
22103;SDS011;11218;48.886;9.426;2023-02-15T05:01:33;43.57;;;17.03;;
22103;SDS011;11218;48.886;9.426;2023-02-15T05:04:01;42.83;;;17.10;;
22103;SDS011;11218;48.886;9.426;2023-02-15T05:06:30;50.70;;;17.40;;
22103;SDS011;11218;48.886;9.426;2023-02-15T05:08:58;44.72;;;16.60;;
22103;SDS011;11218;48.886;9.426;2023-02-15T05:11:27;40.75;;;17.70;;
22103;SDS011;11218;48.886;9.426;2023-02-15T05:13:55;41.37;;;16.73;;
22103;SDS011;11218;48.886;9.426;2023-02-15T05:16:23;44.33;;;16.87;;
22103;SDS011;11218;48.886;9.426;2023-02-15T05:18:52;38.80;;;15.13;;
22103;SDS011;11218;48.886;9.426;2023-02-15T05:21:20;32.80;;;14.73;;
22103;SDS011;11218;48.886;9.426;2023-02-15T05:23:48;40.90;;;16.67;;
22103;SDS011;11218;48.886;9.426;2023-02-15T05:26:16;38.83;;;16.67;;
22103;SDS011;11218;48.886;9.426;2023-02-15T05:29:05;38.70;;;16.30;;
22103;SDS011;11218;48.886;9.426;2023-02-15T05:31:33;38.57;;;16.53;;
22103;SDS011;11218;48.886;9.426;2023-02-15T05:34:02;42.90;;;17.87;;
22103;SDS011;11218;48.886;9.426;2023-02-15T05:36:30;38.23;;;16.90;;
22103;SDS011;11218;48.886;9.426;2023-02-15T05:38:58;40.80;;;18.20;;
22103;SDS011;11218;48.886;9.426;2023-02-15T05:41:26;49.50;;;20.23;;
22103;SDS011;11218;48.886;9.426;2023-02-15T05:43:54;40.27;;;17.67;;
22103;SDS011;11218;48.886;9.426;2023-02-15T05:46:25;40.30;;;17.87;;
22103;SDS011;11218;48.886;9.426;2023-02-15T05:48:53;41.53;;;17.67;;
22103;SDS011;11218;48.886;9.426;2023-02-15T05:51:21;45.27;;;18.77;;
22103;SDS011;11218;48.886;9.426;2023-02-15T05:53:49;43.42;;;16.77;;
22103;SDS011;11218;48.886;9.426;2023-02-15T05:56:17;37.13;;;16.40;;
22103;SDS011;11218;48.886;9.426;2023-02-15T05:58:45;42.03;;;18.07;;
22103;SDS011;11218;48.886;9.426;2023-02-15T06:01:14;39.80;;;16.80;;
22103;SDS011;11218;48.886;9.426;2023-02-15T06:03:46;38.17;;;16.33;;
22103;SDS011;11218;48.886;9.426;2023-02-15T06:06:14;43.47;;;16.60;;
22103;SDS011;11218;48.886;9.426;2023-02-15T06:08:43;39.57;;;16.90;;
22103;SDS011;11218;48.886;9.426;2023-02-15T06:11:11;45.27;;;17.80;;
22103;SDS011;11218;48.886;9.426;2023-02-15T06:13:39;38.33;;;16.10;;
22103;SDS011;11218;48.886;9.426;2023-02-15T06:16:07;44.60;;;18.33;;
22103;SDS011;11218;48.886;9.426;2023-02-15T06:18:35;48.77;;;18.67;;
22103;SDS011;11218;48.886;9.426;2023-02-15T06:21:05;46.10;;;19.03;;
22103;SDS011;11218;48.886;9.426;2023-02-15T06:23:33;46.13;;;18.63;;
22103;SDS011;11218;48.886;9.426;2023-02-15T06:26:02;39.90;;;17.20;;
22103;SDS011;11218;48.886;9.426;2023-02-15T06:28:30;47.53;;;19.07;;
22103;SDS011;11218;48.886;9.426;2023-02-15T06:30:58;44.70;;;19.07;;
22103;SDS011;11218;48.886;9.426;2023-02-15T06:33:27;42.50;;;18.20;;
22103;SDS011;11218;48.886;9.426;2023-02-15T06:35:56;44.43;;;18.47;;
22103;SDS011;11218;48.886;9.426;2023-02-15T06:38:26;50.13;;;19.70;;
22103;SDS011;11218;48.886;9.426;2023-02-15T06:40:54;45.17;;;19.33;;
22103;SDS011;11218;48.886;9.426;2023-02-15T06:43:22;41.30;;;18.37;;
22103;SDS011;11218;48.886;9.426;2023-02-15T06:45:50;47.90;;;18.50;;
22103;SDS011;11218;48.886;9.426;2023-02-15T06:48:19;47.53;;;19.77;;
22103;SDS011;11218;48.886;9.426;2023-02-15T06:50:47;45.83;;;19.47;;
22103;SDS011;11218;48.886;9.426;2023-02-15T06:53:15;48.13;;;19.67;;
22103;SDS011;11218;48.886;9.426;2023-02-15T06:55:45;50.90;;;19.83;;
22103;SDS011;11218;48.886;9.426;2023-02-15T06:58:13;48.33;;;19.70;;
22103;SDS011;11218;48.886;9.426;2023-02-15T07:00:41;54.07;;;19.77;;
22103;SDS011;11218;48.886;9.426;2023-02-15T07:03:09;66.40;;;23.73;;
22103;SDS011;11218;48.886;9.426;2023-02-15T07:05:41;68.57;;;23.70;;
22103;SDS011;11218;48.886;9.426;2023-02-15T07:08:10;67.73;;;24.00;;
22103;SDS011;11218;48.886;9.426;2023-02-15T07:10:38;68.87;;;23.37;;
22103;SDS011;11218;48.886;9.426;2023-02-15T07:13:07;56.20;;;22.03;;
22103;SDS011;11218;48.886;9.426;2023-02-15T07:15:34;58.13;;;23.57;;
22103;SDS011;11218;48.886;9.426;2023-02-15T07:18:02;52.57;;;21.63;;
22103;SDS011;11218;48.886;9.426;2023-02-15T07:20:31;55.47;;;22.17;;
22103;SDS011;11218;48.886;9.426;2023-02-15T07:23:03;60.50;;;24.20;;
22103;SDS011;11218;48.886;9.426;2023-02-15T07:25:31;48.53;;;20.10;;
22103;SDS011;11218;48.886;9.426;2023-02-15T07:28:00;48.03;;;20.20;;
22103;SDS011;11218;48.886;9.426;2023-02-15T07:30:31;46.43;;;20.53;;
22103;SDS011;11218;48.886;9.426;2023-02-15T07:32:59;52.93;;;21.43;;
22103;SDS011;11218;48.886;9.426;2023-02-15T07:35:48;54.23;;;22.47;;
22103;SDS011;11218;48.886;9.426;2023-02-15T07:38:17;59.10;;;22.40;;
22103;SDS011;11218;48.886;9.426;2023-02-15T07:40:46;55.90;;;22.23;;
22103;SDS011;11218;48.886;9.426;2023-02-15T07:43:15;56.27;;;21.30;;
22103;SDS011;11218;48.886;9.426;2023-02-15T07:45:44;49.60;;;20.80;;
22103;SDS011;11218;48.886;9.426;2023-02-15T07:48:13;50.77;;;20.67;;
22103;SDS011;11218;48.886;9.426;2023-02-15T07:50:45;51.73;;;19.93;;
22103;SDS011;11218;48.886;9.426;2023-02-15T07:53:13;50.33;;;19.20;;
22103;SDS011;11218;48.886;9.426;2023-02-15T07:55:41;42.23;;;18.27;;
22103;SDS011;11218;48.886;9.426;2023-02-15T07:58:09;44.43;;;19.40;;
22103;SDS011;11218;48.886;9.426;2023-02-15T08:00:37;47.27;;;20.50;;
22103;SDS011;11218;48.886;9.426;2023-02-15T08:03:21;48.77;;;20.57;;
22103;SDS011;11218;48.886;9.426;2023-02-15T08:05:55;56.77;;;22.07;;
22103;SDS011;11218;48.886;9.426;2023-02-15T08:08:25;43.10;;;19.50;;
22103;SDS011;11218;48.886;9.426;2023-02-15T08:11:01;62.03;;;20.90;;
22103;SDS011;11218;48.886;9.426;2023-02-15T08:13:57;60.60;;;21.15;;
22103;SDS011;11218;48.886;9.426;2023-02-15T08:16:29;52.00;;;20.07;;
22103;SDS011;11218;48.886;9.426;2023-02-15T08:19:01;52.90;;;21.20;;
22103;SDS011;11218;48.886;9.426;2023-02-15T08:21:30;60.23;;;22.50;;
22103;SDS011;11218;48.886;9.426;2023-02-15T08:24:00;52.43;;;20.40;;
22103;SDS011;11218;48.886;9.426;2023-02-15T08:26:29;55.10;;;21.33;;
22103;SDS011;11218;48.886;9.426;2023-02-15T08:28:58;50.97;;;20.73;;
22103;SDS011;11218;48.886;9.426;2023-02-15T08:31:27;50.57;;;21.17;;
22103;SDS011;11218;48.886;9.426;2023-02-15T08:33:56;56.85;;;23.48;;
22103;SDS011;11218;48.886;9.426;2023-02-15T08:36:26;61.80;;;22.50;;
22103;SDS011;11218;48.886;9.426;2023-02-15T08:38:56;54.72;;;21.95;;
22103;SDS011;11218;48.886;9.426;2023-02-15T08:41:26;53.53;;;22.33;;
22103;SDS011;11218;48.886;9.426;2023-02-15T08:43:57;54.95;;;22.92;;
22103;SDS011;11218;48.886;9.426;2023-02-15T08:46:27;57.40;;;22.30;;
22103;SDS011;11218;48.886;9.426;2023-02-15T08:48:58;56.88;;;21.98;;
22103;SDS011;11218;48.886;9.426;2023-02-15T08:51:29;55.03;;;23.67;;
22103;SDS011;11218;48.886;9.426;2023-02-15T08:53:59;62.83;;;22.60;;
22103;SDS011;11218;48.886;9.426;2023-02-15T08:56:28;56.15;;;21.60;;
22103;SDS011;11218;48.886;9.426;2023-02-15T08:58:59;53.17;;;21.92;;
22103;SDS011;11218;48.886;9.426;2023-02-15T09:01:28;46.40;;;19.85;;
22103;SDS011;11218;48.886;9.426;2023-02-15T09:03:59;56.20;;;22.23;;
22103;SDS011;11218;48.886;9.426;2023-02-15T09:06:29;66.07;;;22.80;;
22103;SDS011;11218;48.886;9.426;2023-02-15T09:08:57;48.92;;;20.27;;
22103;SDS011;11218;48.886;9.426;2023-02-15T09:11:26;51.10;;;20.90;;
22103;SDS011;11218;48.886;9.426;2023-02-15T09:13:55;47.90;;;20.75;;
22103;SDS011;11218;48.886;9.426;2023-02-15T09:16:26;55.13;;;21.70;;
22103;SDS011;11218;48.886;9.426;2023-02-15T09:18:55;53.50;;;20.65;;
22103;SDS011;11218;48.886;9.426;2023-02-15T09:21:25;54.35;;;20.58;;
22103;SDS011;11218;48.886;9.426;2023-02-15T09:23:56;55.60;;;20.85;;
22103;SDS011;11218;48.886;9.426;2023-02-15T09:26:26;53.58;;;21.65;;
22103;SDS011;11218;48.886;9.426;2023-02-15T09:28:56;48.97;;;20.90;;
22103;SDS011;11218;48.886;9.426;2023-02-15T09:31:27;52.83;;;21.80;;
22103;SDS011;11218;48.886;9.426;2023-02-15T09:33:57;49.78;;;21.33;;
22103;SDS011;11218;48.886;9.426;2023-02-15T09:36:30;67.75;;;22.92;;
22103;SDS011;11218;48.886;9.426;2023-02-15T09:39:03;61.35;;;21.98;;
22103;SDS011;11218;48.886;9.426;2023-02-15T09:44:50;44.90;;;20.10;;
22103;SDS011;11218;48.886;9.426;2023-02-15T09:47:42;52.33;;;19.63;;
22103;SDS011;11218;48.886;9.426;2023-02-15T09:50:24;45.67;;;20.17;;
22103;SDS011;11218;48.886;9.426;2023-02-15T09:53:06;49.55;;;19.15;;
22103;SDS011;11218;48.886;9.426;2023-02-15T09:55:51;60.67;;;21.63;;
22103;SDS011;11218;48.886;9.426;2023-02-15T09:58:31;49.75;;;20.60;;
22103;SDS011;11218;48.886;9.426;2023-02-15T10:01:12;45.17;;;19.35;;
22103;SDS011;11218;48.886;9.426;2023-02-15T10:04:01;52.15;;;21.23;;
22103;SDS011;11218;48.886;9.426;2023-02-15T10:06:46;46.05;;;19.65;;
22103;SDS011;11218;48.886;9.426;2023-02-15T10:09:26;50.38;;;19.63;;
22103;SDS011;11218;48.886;9.426;2023-02-15T10:12:16;49.40;;;19.42;;
22103;SDS011;11218;48.886;9.426;2023-02-15T10:15:09;48.53;;;19.85;;
22103;SDS011;11218;48.886;9.426;2023-02-15T10:20:41;48.83;;;19.90;;
22103;SDS011;11218;48.886;9.426;2023-02-15T10:23:23;43.42;;;19.50;;
22103;SDS011;11218;48.886;9.426;2023-02-15T10:26:04;55.55;;;21.13;;
22103;SDS011;11218;48.886;9.426;2023-02-15T10:28:46;54.13;;;21.60;;
22103;SDS011;11218;48.886;9.426;2023-02-15T10:31:22;52.28;;;20.80;;
22103;SDS011;11218;48.886;9.426;2023-02-15T10:39:48;53.25;;;21.70;;
22103;SDS011;11218;48.886;9.426;2023-02-15T10:42:26;48.55;;;20.35;;
22103;SDS011;11218;48.886;9.426;2023-02-15T10:45:10;54.83;;;21.33;;
22103;SDS011;11218;48.886;9.426;2023-02-15T10:47:52;67.03;;;23.60;;
22103;SDS011;11218;48.886;9.426;2023-02-15T10:50:38;60.40;;;22.92;;
22103;SDS011;11218;48.886;9.426;2023-02-15T10:53:17;57.38;;;22.30;;
22103;SDS011;11218;48.886;9.426;2023-02-15T10:55:55;63.53;;;23.38;;
22103;SDS011;11218;48.886;9.426;2023-02-15T10:58:34;54.13;;;21.95;;
22103;SDS011;11218;48.886;9.426;2023-02-15T11:01:17;51.53;;;21.80;;
22103;SDS011;11218;48.886;9.426;2023-02-15T11:04:00;54.92;;;21.25;;
22103;SDS011;11218;48.886;9.426;2023-02-15T11:06:43;59.40;;;23.45;;
22103;SDS011;11218;48.886;9.426;2023-02-15T11:09:17;50.65;;;21.70;;
22103;SDS011;11218;48.886;9.426;2023-02-15T11:11:50;50.42;;;22.00;;
22103;SDS011;11218;48.886;9.426;2023-02-15T11:14:23;53.72;;;22.23;;
22103;SDS011;11218;48.886;9.426;2023-02-15T11:17:04;54.22;;;22.08;;
22103;SDS011;11218;48.886;9.426;2023-02-15T11:19:37;53.88;;;21.25;;
22103;SDS011;11218;48.886;9.426;2023-02-15T11:22:10;52.25;;;21.70;;
22103;SDS011;11218;48.886;9.426;2023-02-15T11:24:40;52.22;;;21.75;;
22103;SDS011;11218;48.886;9.426;2023-02-15T11:27:16;56.03;;;21.80;;
22103;SDS011;11218;48.886;9.426;2023-02-15T11:29:53;49.33;;;20.17;;
22103;SDS011;11218;48.886;9.426;2023-02-15T11:32:28;46.88;;;21.08;;
22103;SDS011;11218;48.886;9.426;2023-02-15T11:35:00;56.22;;;21.40;;
22103;SDS011;11218;48.886;9.426;2023-02-15T11:37:33;49.15;;;20.30;;
22103;SDS011;11218;48.886;9.426;2023-02-15T11:40:14;50.10;;;21.02;;
22103;SDS011;11218;48.886;9.426;2023-02-15T11:42:47;48.78;;;20.75;;
22103;SDS011;11218;48.886;9.426;2023-02-15T11:45:19;52.22;;;21.13;;
22103;SDS011;11218;48.886;9.426;2023-02-15T11:47:54;44.88;;;19.83;;
22103;SDS011;11218;48.886;9.426;2023-02-15T11:50:24;49.47;;;20.45;;
22103;SDS011;11218;48.886;9.426;2023-02-15T11:52:56;43.83;;;20.00;;
22103;SDS011;11218;48.886;9.426;2023-02-15T11:55:26;60.42;;;21.85;;
22103;SDS011;11218;48.886;9.426;2023-02-15T11:57:57;55.80;;;22.27;;
22103;SDS011;11218;48.886;9.426;2023-02-15T12:00:33;57.40;;;22.33;;
22103;SDS011;11218;48.886;9.426;2023-02-15T12:03:09;49.60;;;20.70;;
22103;SDS011;11218;48.886;9.426;2023-02-15T12:05:42;56.10;;;21.58;;
22103;SDS011;11218;48.886;9.426;2023-02-15T12:08:19;54.13;;;20.95;;
22103;SDS011;11218;48.886;9.426;2023-02-15T12:10:55;40.10;;;18.90;;
22103;SDS011;11218;48.886;9.426;2023-02-15T12:13:28;49.85;;;20.95;;
22103;SDS011;11218;48.886;9.426;2023-02-15T12:15:57;54.10;;;21.45;;
22103;SDS011;11218;48.886;9.426;2023-02-15T12:18:37;51.60;;;20.80;;
22103;SDS011;11218;48.886;9.426;2023-02-15T12:21:08;60.47;;;21.65;;
22103;SDS011;11218;48.886;9.426;2023-02-15T12:23:41;60.85;;;21.38;;
22103;SDS011;11218;48.886;9.426;2023-02-15T12:26:15;50.15;;;19.65;;
22103;SDS011;11218;48.886;9.426;2023-02-15T12:28:52;51.75;;;21.35;;
22103;SDS011;11218;48.886;9.426;2023-02-15T12:31:24;45.83;;;19.33;;
22103;SDS011;11218;48.886;9.426;2023-02-15T12:33:57;45.22;;;20.05;;
22103;SDS011;11218;48.886;9.426;2023-02-15T12:36:30;66.50;;;22.55;;
22103;SDS011;11218;48.886;9.426;2023-02-15T12:39:04;52.22;;;21.08;;
22103;SDS011;11218;48.886;9.426;2023-02-15T12:41:43;60.40;;;22.35;;
22103;SDS011;11218;48.886;9.426;2023-02-15T12:44:16;47.38;;;19.80;;
22103;SDS011;11218;48.886;9.426;2023-02-15T12:46:55;45.60;;;20.33;;
22103;SDS011;11218;48.886;9.426;2023-02-15T12:49:31;48.60;;;19.65;;
22103;SDS011;11218;48.886;9.426;2023-02-15T12:52:00;52.05;;;20.98;;
22103;SDS011;11218;48.886;9.426;2023-02-15T12:54:36;46.58;;;19.33;;
22103;SDS011;11218;48.886;9.426;2023-02-15T12:57:20;46.35;;;19.83;;
22103;SDS011;11218;48.886;9.426;2023-02-15T12:59:53;43.15;;;19.27;;
22103;SDS011;11218;48.886;9.426;2023-02-15T13:02:27;45.75;;;19.92;;
22103;SDS011;11218;48.886;9.426;2023-02-15T13:05:04;41.55;;;18.95;;
22103;SDS011;11218;48.886;9.426;2023-02-15T13:07:45;52.40;;;21.65;;
22103;SDS011;11218;48.886;9.426;2023-02-15T13:10:21;53.55;;;20.75;;
22103;SDS011;11218;48.886;9.426;2023-02-15T13:12:54;59.53;;;21.65;;
22103;SDS011;11218;48.886;9.426;2023-02-15T13:15:25;43.38;;;19.80;;
22103;SDS011;11218;48.886;9.426;2023-02-15T13:17:58;48.10;;;19.83;;
22103;SDS011;11218;48.886;9.426;2023-02-15T13:20:29;44.72;;;20.60;;
22103;SDS011;11218;48.886;9.426;2023-02-15T13:23:01;40.50;;;19.33;;
22103;SDS011;11218;48.886;9.426;2023-02-15T13:25:36;46.05;;;19.88;;
22103;SDS011;11218;48.886;9.426;2023-02-15T13:28:14;50.75;;;21.15;;
22103;SDS011;11218;48.886;9.426;2023-02-15T13:30:45;46.03;;;20.20;;
22103;SDS011;11218;48.886;9.426;2023-02-15T13:33:17;46.45;;;20.75;;
22103;SDS011;11218;48.886;9.426;2023-02-15T13:35:57;54.33;;;21.38;;
22103;SDS011;11218;48.886;9.426;2023-02-15T13:41:23;42.05;;;20.10;;
22103;SDS011;11218;48.886;9.426;2023-02-15T13:44:03;47.13;;;18.63;;
22103;SDS011;11218;48.886;9.426;2023-02-15T13:46:44;49.58;;;19.95;;
22103;SDS011;11218;48.886;9.426;2023-02-15T13:49:25;53.35;;;21.23;;
22103;SDS011;11218;48.886;9.426;2023-02-15T13:52:11;53.45;;;20.67;;
22103;SDS011;11218;48.886;9.426;2023-02-15T13:54:53;44.40;;;17.50;;
22103;SDS011;11218;48.886;9.426;2023-02-15T13:58:01;52.50;;;19.65;;
22103;SDS011;11218;48.886;9.426;2023-02-15T14:00:44;49.38;;;19.08;;
22103;SDS011;11218;48.886;9.426;2023-02-15T14:03:35;42.78;;;17.27;;
22103;SDS011;11218;48.886;9.426;2023-02-15T14:06:34;36.22;;;16.90;;
22103;SDS011;11218;48.886;9.426;2023-02-15T14:09:20;47.22;;;18.13;;
22103;SDS011;11218;48.886;9.426;2023-02-15T14:12:00;45.60;;;18.13;;
22103;SDS011;11218;48.886;9.426;2023-02-15T14:14:52;40.15;;;16.70;;
22103;SDS011;11218;48.886;9.426;2023-02-15T14:17:37;53.75;;;19.95;;
22103;SDS011;11218;48.886;9.426;2023-02-15T14:20:18;52.67;;;19.33;;
22103;SDS011;11218;48.886;9.426;2023-02-15T14:22:53;50.65;;;19.13;;
22103;SDS011;11218;48.886;9.426;2023-02-15T14:25:35;41.53;;;17.50;;
22103;SDS011;11218;48.886;9.426;2023-02-15T14:28:08;49.28;;;18.58;;
22103;SDS011;11218;48.886;9.426;2023-02-15T14:30:40;74.28;;;21.63;;
22103;SDS011;11218;48.886;9.426;2023-02-15T14:33:21;45.42;;;18.27;;
22103;SDS011;11218;48.886;9.426;2023-02-15T14:36:01;35.53;;;17.63;;
22103;SDS011;11218;48.886;9.426;2023-02-15T14:38:37;43.72;;;19.23;;
22103;SDS011;11218;48.886;9.426;2023-02-15T14:41:16;40.72;;;18.00;;
22103;SDS011;11218;48.886;9.426;2023-02-15T14:43:48;45.25;;;19.42;;
22103;SDS011;11218;48.886;9.426;2023-02-15T14:46:23;41.45;;;17.75;;
22103;SDS011;11218;48.886;9.426;2023-02-15T14:48:58;44.25;;;17.80;;
22103;SDS011;11218;48.886;9.426;2023-02-15T14:57:33;50.53;;;18.83;;
22103;SDS011;11218;48.886;9.426;2023-02-15T15:03:07;48.03;;;18.33;;
22103;SDS011;11218;48.886;9.426;2023-02-15T15:05:46;45.90;;;16.83;;
22103;SDS011;11218;48.886;9.426;2023-02-15T15:08:25;47.13;;;17.13;;
22103;SDS011;11218;48.886;9.426;2023-02-15T15:14:13;49.92;;;18.52;;
22103;SDS011;11218;48.886;9.426;2023-02-15T15:17:08;50.63;;;19.65;;
22103;SDS011;11218;48.886;9.426;2023-02-15T15:22:34;76.10;;;27.77;;
22103;SDS011;11218;48.886;9.426;2023-02-15T15:25:04;49.03;;;19.55;;
22103;SDS011;11218;48.886;9.426;2023-02-15T15:27:47;52.80;;;19.00;;
22103;SDS011;11218;48.886;9.426;2023-02-15T15:33:36;49.58;;;17.83;;
22103;SDS011;11218;48.886;9.426;2023-02-15T15:39:40;55.80;;;19.98;;
22103;SDS011;11218;48.886;9.426;2023-02-15T15:42:31;58.13;;;20.73;;
22103;SDS011;11218;48.886;9.426;2023-02-15T15:45:17;47.97;;;18.00;;